Terminal Aerodrome Forecast
Issued by NWS Louisville, KY

Home | Current Version | Previous Version | Text Only | Print | Product List | Glossary On
Versions: 1 2 3 4 5 6 7 8 9 10 11 12 13 14
000
FTUS43 KLMK 091726
TAFSDF
TAF
KSDF 091726Z 0918/1024 29007KT P6SM BKN029
     FM092130 29006KT P6SM FEW035 SCT100
     FM101500 VRB04KT P6SM FEW025 SCT080=

USA.gov is the U.S. government's official web portal to all federal, state and local government web resources and services.